Time;durP1;ratioP1;P1;durP2;ratioP2;P2;SDS_P1;SDS_P2;PMS_P1;PMS_P2;Temp;Humidity;BMP_temperature;BMP_pressure;BME280_temperature;BME280_humidity;BME280_pressure;Samples;Min_cycle;Max_cycle;Signal;HPM_P1;HPM_P2
2023/09/29 00:00:23;;;;;;;9.20;3.90;;;;;;;12.54;72.89;99957.59;107197;1272;22546;-66
2023/09/29 00:03:12;;;;;;;5.90;4.40;;;;;;;12.52;73.34;99963.48;106682;1269;22538;-66
2023/09/29 00:05:43;;;;;;;6.20;3.80;;;;;;;12.53;73.78;99960.08;106914;1269;99567;-66
2023/09/29 00:08:16;;;;;;;7.60;4.10;;;;;;;12.63;74.06;99959.91;106622;1275;22545;-66
2023/09/29 00:10:45;;;;;;;5.60;3.70;;;;;;;12.73;74.17;99959.38;106494;1272;99625;-65
2023/09/29 00:13:14;;;;;;;4.50;3.30;;;;;;;12.82;74.10;99956.48;106397;1270;24363;-65
2023/09/29 00:15:43;;;;;;;5.10;3.80;;;;;;;12.89;74.19;99958.02;106642;1272;22635;-66
2023/09/29 00:18:12;;;;;;;5.90;3.50;;;;;;;12.98;74.29;99960.00;106627;1269;22552;-66
2023/09/29 00:20:41;;;;;;;3.80;3.30;;;;;;;13.05;74.35;99957.15;106768;1267;22643;-66
2023/09/29 00:23:09;;;;;;;5.00;3.80;;;;;;;13.11;74.32;99956.48;106808;1269;99090;-66
2023/09/29 00:25:38;;;;;;;5.20;3.80;;;;;;;13.20;74.32;99954.97;106910;1269;25371;-66
2023/09/29 00:28:07;;;;;;;8.90;4.80;;;;;;;13.31;74.43;99952.86;106656;1266;99250;-65
2023/09/29 00:30:35;;;;;;;5.90;3.80;;;;;;;13.35;74.28;99951.73;106648;1270;24309;-66
2023/09/29 00:33:05;;;;;;;7.10;4.00;;;;;;;13.28;74.06;99947.77;106649;1269;22534;-65
2023/09/29 00:35:34;;;;;;;6.50;3.70;;;;;;;13.21;74.17;99946.32;107821;1269;99393;-66
2023/09/29 00:38:03;;;;;;;5.70;3.60;;;;;;;13.15;74.10;99949.95;106723;1270;22989;-66
2023/09/29 00:40:32;;;;;;;7.00;3.90;;;;;;;13.09;74.11;99948.59;106664;1272;100439;-66
2023/09/29 00:43:03;;;;;;;6.70;4.60;;;;;;;13.05;74.38;99946.54;106952;1270;22526;-66
2023/09/29 00:45:32;;;;;;;4.80;3.60;;;;;;;12.99;74.60;99951.91;106669;1271;26332;-66
2023/09/29 00:48:08;;;;;;;4.70;3.00;;;;;;;12.94;74.74;99949.73;106770;1269;99543;-66
2023/09/29 00:50:38;;;;;;;7.80;3.10;;;;;;;12.92;74.89;99948.45;106889;1270;22541;-65
2023/09/29 00:53:13;;;;;;;6.40;4.10;;;;;;;12.94;75.19;99947.47;106710;1269;99236;-66
2023/09/29 00:55:45;;;;;;;5.70;3.90;;;;;;;12.96;75.24;99952.07;107288;1269;22628;-66
2023/09/29 00:58:15;;;;;;;8.10;3.90;;;;;;;13.00;75.28;99950.48;106994;1269;99499;-66
2023/09/29 01:00:45;;;;;;;7.40;4.10;;;;;;;13.05;75.35;99950.39;106997;1272;22547;-65
2023/09/29 01:03:15;;;;;;;4.30;3.30;;;;;;;13.09;75.38;99947.52;107029;1269;22520;-66
2023/09/29 01:05:48;;;;;;;8.20;4.50;;;;;;;13.14;75.35;99944.63;107944;1272;98981;-66
2023/09/29 01:08:20;;;;;;;4.20;3.00;;;;;;;13.12;75.02;99940.02;106952;1270;22526;-66
2023/09/29 01:10:49;;;;;;;6.70;3.50;;;;;;;13.05;74.96;99935.15;107227;1256;99673;-66
2023/09/29 01:13:18;;;;;;;4.10;3.20;;;;;;;13.00;75.07;99934.56;106881;1271;25335;-65
2023/09/29 01:15:47;;;;;;;6.50;3.10;;;;;;;12.98;75.05;99930.30;107043;1269;99990;-64
2023/09/29 01:18:16;;;;;;;5.70;3.60;;;;;;;12.97;75.01;99931.42;106763;1274;24220;-65
2023/09/29 01:20:45;;;;;;;5.40;3.30;;;;;;;12.93;75.06;99934.91;107607;1269;22536;-66
2023/09/29 01:23:14;;;;;;;6.20;3.70;;;;;;;12.89;75.18;99940.02;106670;1274;99207;-66
2023/09/29 01:25:43;;;;;;;6.10;4.00;;;;;;;12.81;75.31;99940.64;107078;1276;24251;-66
2023/09/29 01:28:12;;;;;;;5.00;3.70;;;;;;;12.82;75.52;99943.41;106649;1267;100868;-65
2023/09/29 01:30:43;;;;;;;7.30;3.70;;;;;;;12.88;75.73;99943.23;106727;1269;22555;-65
2023/09/29 01:33:12;;;;;;;5.70;3.20;;;;;;;12.98;75.77;99942.17;106827;1263;25261;-66
2023/09/29 01:35:43;;;;;;;5.70;4.20;;;;;;;13.06;75.85;99939.45;107324;1270;99721;-65
2023/09/29 01:38:13;;;;;;;5.40;3.60;;;;;;;13.14;75.92;99938.88;107186;1271;22635;-66
2023/09/29 01:40:44;;;;;;;6.20;4.00;;;;;;;13.19;76.00;99948.20;106727;1272;99105;-66
2023/09/29 01:43:18;;;;;;;4.60;3.30;;;;;;;13.24;76.11;99946.19;106931;1270;23906;-65
2023/09/29 01:45:48;;;;;;;4.50;3.50;;;;;;;13.30;76.16;99950.24;106725;1270;99708;-64
2023/09/29 01:48:17;;;;;;;6.00;3.60;;;;;;;13.35;76.10;99951.73;106820;1263;24227;-66
2023/09/29 01:50:47;;;;;;;6.30;3.80;;;;;;;13.37;76.02;99954.23;106749;1272;22533;-65
2023/09/29 01:53:16;;;;;;;5.80;3.40;;;;;;;13.40;76.09;99956.17;106511;1272;99106;-66
2023/09/29 01:55:45;;;;;;;5.00;3.60;;;;;;;13.48;76.14;99947.19;106646;1270;22770;-65
2023/09/29 01:58:14;;;;;;;4.10;2.70;;;;;;;13.53;76.15;99949.13;106684;1262;99401;-65
2023/09/29 02:00:42;;;;;;;4.20;3.20;;;;;;;13.53;76.09;99951.27;106556;1270;22605;-65
2023/09/29 02:03:11;;;;;;;3.90;3.00;;;;;;;13.52;76.03;99948.50;107149;1272;25342;-65
2023/09/29 02:05:40;;;;;;;5.30;3.80;;;;;;;13.48;75.77;99952.23;106647;1269;99151;-65
2023/09/29 02:08:10;;;;;;;4.20;3.40;;;;;;;13.38;75.61;99951.71;106718;1271;24342;-65
2023/09/29 02:10:38;;;;;;;5.30;3.60;;;;;;;13.26;75.65;99950.64;106502;1270;99037;-65
2023/09/29 02:13:08;;;;;;;4.70;2.90;;;;;;;13.15;75.59;99950.16;106891;1270;25304;-65
2023/09/29 02:15:36;;;;;;;4.40;3.30;;;;;;;13.04;75.66;99948.30;107246;1254;25937;-65
2023/09/29 02:18:06;;;;;;;5.00;2.90;;;;;;;12.97;75.79;99946.25;107267;1269;99002;-65
2023/09/29 02:20:39;;;;;;;5.80;3.10;;;;;;;12.90;75.99;99939.09;106588;1270;22632;-65
2023/09/29 02:23:07;;;;;;;8.50;3.50;;;;;;;12.85;76.19;99933.97;106987;1260;99394;-65
2023/09/29 02:25:36;;;;;;;4.20;3.00;;;;;;;12.82;76.29;99931.36;107153;1270;25522;-65
2023/09/29 02:28:05;;;;;;;4.90;3.80;;;;;;;12.77;76.33;99928.10;107167;1269;100057;-65
2023/09/29 02:30:36;;;;;;;7.00;3.80;;;;;;;12.73;76.51;99928.98;107362;1270;24277;-65
2023/09/29 02:33:06;;;;;;;5.10;3.10;;;;;;;12.72;76.65;99928.14;106859;1270;25561;-65
2023/09/29 02:35:34;;;;;;;5.90;3.60;;;;;;;12.72;76.70;99932.02;106698;1269;99494;-65
2023/09/29 02:38:03;;;;;;;5.10;3.70;;;;;;;12.72;76.89;99928.71;106828;1269;26137;-66
2023/09/29 02:40:32;;;;;;;6.10;3.40;;;;;;;12.70;76.87;99923.02;106824;1270;99769;-65
2023/09/29 02:43:00;;;;;;;5.80;3.50;;;;;;;12.69;77.08;99921.67;106668;1270;22534;-66
2023/09/29 02:45:29;;;;;;;6.70;3.50;;;;;;;12.68;77.29;99919.11;106678;1262;23304;-65
2023/09/29 02:47:57;;;;;;;4.90;3.40;;;;;;;12.72;77.67;99915.94;106807;1270;100381;-66
2023/09/29 02:50:26;;;;;;;6.50;3.40;;;;;;;12.76;77.80;99913.61;106449;1273;23923;-66
2023/09/29 02:52:55;;;;;;;8.00;3.40;;;;;;;12.82;77.77;99912.98;106521;1270;99082;-66
2023/09/29 02:55:26;;;;;;;4.90;3.30;;;;;;;12.84;77.69;99909.92;106621;1273;22519;-66
2023/09/29 02:57:55;;;;;;;6.00;3.50;;;;;;;12.87;77.86;99907.47;110302;1269;99801;-65
2023/09/29 03:00:26;;;;;;;5.30;3.40;;;;;;;12.92;77.89;99907.36;110409;1267;22292;-66
2023/09/29 03:02:55;;;;;;;4.60;3.20;;;;;;;12.96;77.96;99904.91;108974;1273;25271;-66
2023/09/29 03:05:25;;;;;;;3.80;3.10;;;;;;;13.02;78.07;99902.10;107433;1270;99709;-66
2023/09/29 03:07:55;;;;;;;4.80;2.90;;;;;;;13.10;78.14;99895.02;106992;1269;24275;-66
2023/09/29 03:10:25;;;;;;;3.90;2.60;;;;;;;13.15;77.98;99895.27;106690;1269;99245;-65
2023/09/29 03:12:58;;;;;;;6.10;3.30;;;;;;;13.13;77.75;99891.38;106735;1267;25362;-66
2023/09/29 03:15:27;;;;;;;9.20;3.40;;;;;;;13.09;77.80;99889.34;106561;1272;22656;-65
2023/09/29 03:17:56;;;;;;;7.70;4.70;;;;;;;13.05;77.80;99892.15;106459;1264;99691;-66
2023/09/29 03:20:28;;;;;;;6.40;3.60;;;;;;;13.00;77.74;99893.29;106582;1272;22572;-65
2023/09/29 03:23:04;;;;;;;6.70;3.20;;;;;;;12.96;77.80;99889.34;106692;1267;99281;-65
2023/09/29 03:25:33;;;;;;;5.10;3.20;;;;;;;12.92;77.99;99890.92;106547;1273;22738;-65
2023/09/29 03:28:03;;;;;;;3.10;2.60;;;;;;;12.86;77.69;99893.53;106520;1272;100044;-65
2023/09/29 03:30:32;;;;;;;4.90;3.50;;;;;;;12.80;77.79;99894.76;106597;1271;22534;-65
2023/09/29 03:33:01;;;;;;;4.40;2.80;;;;;;;12.72;77.81;99887.98;106602;1273;25368;-65
2023/09/29 03:35:30;;;;;;;4.20;2.90;;;;;;;12.68;77.90;99885.27;106355;1274;99900;-66
2023/09/29 03:38:04;;;;;;;9.60;3.80;;;;;;;12.63;78.04;99882.35;106587;1273;23848;-66
2023/09/29 03:40:33;;;;;;;5.60;2.90;;;;;;;12.59;78.00;99877.00;106431;1271;100316;-65
2023/09/29 03:43:03;;;;;;;6.60;3.10;;;;;;;12.51;77.88;99872.52;106535;1272;25102;-65
2023/09/29 03:45:32;;;;;;;4.20;3.00;;;;;;;12.45;78.00;99871.46;107121;1272;25363;-65
2023/09/29 03:48:03;;;;;;;5.60;3.70;;;;;;;12.39;77.94;99867.97;106624;1272;99319;-65
2023/09/29 03:50:33;;;;;;;4.00;3.00;;;;;;;12.31;77.97;99867.62;106612;1271;22543;-65
2023/09/29 03:53:02;;;;;;;7.50;3.80;;;;;;;12.24;77.93;99865.73;107136;1260;99727;-65
2023/09/29 03:55:30;;;;;;;4.40;2.70;;;;;;;12.15;77.84;99859.42;107141;1273;22540;-65
2023/09/29 03:57:59;;;;;;;5.10;3.20;;;;;;;12.07;78.05;99856.13;106367;1271;102508;-65
2023/09/29 04:00:30;;;;;;;5.60;3.50;;;;;;;12.03;78.09;99851.29;106620;1273;22654;-65
2023/09/29 04:03:00;;;;;;;6.00;3.10;;;;;;;11.99;78.47;99855.15;106494;1270;24089;-66
2023/09/29 04:05:29;;;;;;;4.70;3.10;;;;;;;11.98;78.71;99855.04;106486;1270;99519;-66
2023/09/29 04:07:58;;;;;;;3.30;2.60;;;;;;;12.01;79.14;99852.98;106512;1272;25281;-66
2023/09/29 04:10:28;;;;;;;5.40;3.70;;;;;;;12.06;79.40;99852.89;106679;1270;99698;-66
2023/09/29 04:12:57;;;;;;;10.10;4.00;;;;;;;12.15;79.70;99850.86;106614;1272;22536;-65
2023/09/29 04:15:27;;;;;;;5.70;3.70;;;;;;;12.25;79.90;99846.29;106594;1273;25534;-66
2023/09/29 04:17:56;;;;;;;6.20;4.00;;;;;;;12.32;79.84;99843.50;106413;1271;99252;-65
2023/09/29 04:20:25;;;;;;;3.50;2.40;;;;;;;12.38;79.73;99843.23;106534;1272;22591;-65
2023/09/29 04:22:54;;;;;;;6.70;3.50;;;;;;;12.43;79.37;99842.42;106947;1273;99205;-65
2023/09/29 04:25:22;;;;;;;6.50;3.20;;;;;;;12.46;79.38;99845.91;106749;1272;25475;-65
2023/09/29 04:27:51;;;;;;;5.30;3.70;;;;;;;12.50;79.76;99848.84;106709;1271;99937;-64
2023/09/29 04:30:20;;;;;;;4.80;3.60;;;;;;;12.52;79.72;99847.20;106379;1274;22451;-65
2023/09/29 04:32:48;;;;;;;6.70;3.60;;;;;;;12.50;79.70;99852.49;107795;1271;22778;-65
2023/09/29 04:35:17;;;;;;;4.50;3.70;;;;;;;12.50;79.89;99846.92;106839;1272;100451;-65
2023/09/29 04:37:47;;;;;;;5.50;3.70;;;;;;;12.51;79.83;99843.55;106639;1272;25136;-66
2023/09/29 04:40:16;;;;;;;4.30;3.30;;;;;;;12.53;80.00;99840.67;106401;1271;99857;-65
2023/09/29 04:42:45;;;;;;;7.30;3.50;;;;;;;12.54;79.92;99836.06;106688;1271;22534;-66
2023/09/29 04:45:13;;;;;;;8.30;3.60;;;;;;;12.52;79.76;99839.16;106562;1272;25994;-65
2023/09/29 04:47:42;;;;;;;5.10;3.90;;;;;;;12.50;79.76;99840.83;106418;1272;99097;-66
2023/09/29 04:50:15;;;;;;;6.30;3.40;;;;;;;12.48;79.63;99839.55;106495;1271;23152;-65
2023/09/29 04:52:44;;;;;;;5.40;3.70;;;;;;;12.45;79.78;99836.17;106385;1271;99086;-65
2023/09/29 04:55:13;;;;;;;6.20;2.90;;;;;;;12.48;79.87;99839.18;106490;1271;22550;-61
2023/09/29 04:57:41;;;;;;;4.80;3.80;;;;;;;12.51;79.81;99836.56;106554;1274;25245;-61
2023/09/29 05:00:11;;;;;;;5.80;4.10;;;;;;;12.52;79.86;99833.19;106384;1270;100352;-61
2023/09/29 05:02:39;;;;;;;7.30;4.20;;;;;;;12.54;79.86;99838.13;106303;1273;24218;-60
2023/09/29 05:05:09;;;;;;;5.90;3.10;;;;;;;12.52;79.68;99836.18;106776;1272;99227;-60
2023/09/29 05:07:39;;;;;;;6.20;4.40;;;;;;;12.57;79.82;99837.10;106913;1273;22609;-61
2023/09/29 05:10:10;;;;;;;8.90;4.80;;;;;;;12.62;79.95;99837.38;106693;1270;99221;-61
2023/09/29 05:12:41;;;;;;;5.00;3.10;;;;;;;12.68;80.08;99839.47;107395;1271;22539;-61
2023/09/29 05:15:10;;;;;;;15.20;4.40;;;;;;;12.77;80.10;99833.60;107093;1272;22535;-61
2023/09/29 05:17:40;;;;;;;6.50;3.50;;;;;;;12.79;80.37;99828.61;106449;1273;99228;-61
2023/09/29 05:20:19;;;;;;;8.10;3.40;;;;;;;12.88;80.42;99829.15;106700;1270;22729;-59
2023/09/29 05:22:48;;;;;;;4.70;3.60;;;;;;;12.97;80.39;99826.75;106572;1270;99041;-61
2023/09/29 05:25:17;;;;;;;7.30;3.30;;;;;;;13.05;80.23;99828.92;106725;1269;314388;-61
2023/09/29 05:27:46;;;;;;;6.40;4.30;;;;;;;13.14;80.21;99826.84;106761;1270;22553;-61
2023/09/29 05:30:16;;;;;;;12.50;4.00;;;;;;;13.24;80.27;99826.13;106559;1270;24260;-61
2023/09/29 05:32:45;;;;;;;8.90;3.40;;;;;;;13.35;80.34;99821.34;106583;1270;22536;-60
2023/09/29 05:35:14;;;;;;;5.50;3.70;;;;;;;13.46;80.21;99819.62;107806;1270;99778;-61
2023/09/29 05:37:43;;;;;;;4.60;2.90;;;;;;;13.57;80.19;99822.83;106544;1272;22615;-61
2023/09/29 05:40:11;;;;;;;4.00;3.20;;;;;;;13.65;80.15;99823.39;106609;1271;99946;-60
2023/09/29 05:42:43;;;;;;;8.70;3.20;;;;;;;13.77;80.23;99819.55;106670;1271;27604;-61
2023/09/29 05:45:20;;;;;;;4.20;3.00;;;;;;;13.93;80.19;99817.58;106449;1270;25284;-60
2023/09/29 05:47:51;;;;;;;7.70;4.20;;;;;;;14.08;80.19;99814.73;106570;1270;99133;-61
2023/09/29 05:50:21;;;;;;;5.00;3.50;;;;;;;14.25;80.25;99815.65;107023;1272;24303;-61
2023/09/29 05:52:50;;;;;;;4.50;2.80;;;;;;;14.41;80.27;99817.62;110084;1270;99459;-61
2023/09/29 05:55:36;;;;;;;7.20;3.60;;;;;;;14.62;80.24;99815.02;110235;1270;25656;-60
2023/09/29 05:58:05;;;;;;;4.00;3.40;;;;;;;14.79;80.18;99812.48;107831;1272;99417;-58
2023/09/29 06:00:34;;;;;;;5.80;3.00;;;;;;;14.96;80.14;99812.11;108809;1270;24269;-59
2023/09/29 06:03:03;;;;;;;5.50;3.60;;;;;;;15.11;79.99;99811.37;106611;1273;22526;-58
2023/09/29 06:05:32;;;;;;;6.70;3.20;;;;;;;15.27;80.00;99811.55;107745;1272;98994;-63
2023/09/29 06:08:01;;;;;;;5.40;3.50;;;;;;;15.46;80.05;99812.20;106535;1270;26666;-65
2023/09/29 06:10:30;;;;;;;5.30;2.90;;;;;;;15.68;79.97;99809.52;106548;1271;99830;-63
2023/09/29 06:12:59;;;;;;;5.00;2.70;;;;;;;15.91;79.85;99807.70;107659;1271;24097;-65
2023/09/29 06:15:32;;;;;;;4.20;2.70;;;;;;;16.10;79.64;99807.91;106969;1258;23697;-69
2023/09/29 06:18:01;;;;;;;4.40;2.70;;;;;;;16.29;79.50;99804.30;106491;1272;98920;-65
2023/09/29 06:20:30;;;;;;;4.00;3.00;;;;;;;16.46;79.27;99809.52;106539;1271;22531;-67
2023/09/29 06:22:59;;;;;;;5.70;2.80;;;;;;;16.61;79.15;99811.42;106664;1271;99785;-67
2023/09/29 06:25:28;;;;;;;3.70;2.60;;;;;;;16.81;79.23;99813.91;106541;1268;25247;-65
2023/09/29 06:27:57;;;;;;;3.90;2.50;;;;;;;17.01;79.16;99814.73;107350;1271;99867;-69
2023/09/29 06:30:25;;;;;;;5.50;3.20;;;;;;;17.22;79.19;99818.30;106797;1272;24379;-67
2023/09/29 06:32:54;;;;;;;11.40;3.90;;;;;;;17.43;79.07;99819.59;106454;1272;22664;-70
2023/09/29 06:35:23;;;;;;;9.40;3.40;;;;;;;17.65;78.77;99824.05;106448;1272;100015;-69
2023/09/29 06:37:51;;;;;;;9.00;3.70;;;;;;;17.89;78.61;99823.03;106903;1264;25400;-66
2023/09/29 06:40:21;;;;;;;5.20;2.60;;;;;;;18.15;78.54;99824.16;106354;1271;99760;-66
2023/09/29 06:42:50;;;;;;;6.10;2.60;;;;;;;18.37;78.14;99828.26;106425;1272;24066;-69
2023/09/29 06:45:19;;;;;;;5.20;3.00;;;;;;;18.57;77.61;99828.66;106483;1271;22533;-67
2023/09/29 06:47:48;;;;;;;5.30;2.50;;;;;;;18.74;77.39;99825.62;106430;1271;99653;-67
2023/09/29 06:50:17;;;;;;;5.80;3.20;;;;;;;18.96;77.27;99821.70;106720;1267;23470;-67
2023/09/29 06:52:46;;;;;;;4.80;2.70;;;;;;;19.22;77.21;99827.69;106403;1271;100585;-69
2023/09/29 06:55:14;;;;;;;10.50;3.30;;;;;;;19.50;77.10;99826.63;106438;1271;24264;-70
2023/09/29 06:57:43;;;;;;;4.90;2.50;;;;;;;19.75;76.77;99831.51;106669;1272;25258;-70
2023/09/29 07:00:13;;;;;;;6.40;3.10;;;;;;;20.04;76.58;99830.86;107024;1272;25553;-70
2023/09/29 07:02:43;;;;;;;4.40;3.00;;;;;;;20.38;76.35;99824.73;106808;1272;24394;-70
2023/09/29 07:05:17;;;;;;;4.80;2.90;;;;;;;20.79;76.10;99828.07;107182;1272;99480;-69
2023/09/29 07:07:46;;;;;;;8.70;3.10;;;;;;;21.24;75.70;99824.80;107004;1271;22555;-69
2023/09/29 07:10:15;;;;;;;9.00;3.40;;;;;;;21.67;75.26;99822.52;106596;1272;99401;-69
2023/09/29 07:12:46;;;;;;;6.00;2.90;;;;;;;21.99;74.67;99821.96;106706;1268;22547;-67
2023/09/29 07:15:14;;;;;;;3.70;2.60;;;;;;;22.41;74.66;99823.17;106791;1270;24228;-66
2023/09/29 07:17:43;;;;;;;3.80;2.80;;;;;;;22.84;73.82;99818.57;106801;1270;99897;-66
2023/09/29 07:20:12;;;;;;;3.60;2.30;;;;;;;23.11;73.51;99821.23;107508;1269;22657;-65
2023/09/29 07:22:41;;;;;;;9.80;2.60;;;;;;;23.41;72.98;99819.54;106663;1269;99089;-65
2023/09/29 07:25:10;;;;;;;7.20;3.20;;;;;;;23.70;72.32;99817.59;106740;1267;23904;-66
2023/09/29 07:27:39;;;;;;;4.80;2.70;;;;;;;23.87;71.85;99819.60;106866;1269;22523;-64
2023/09/29 07:30:08;;;;;;;2.50;2.00;;;;;;;24.08;71.49;99818.34;106776;1269;99381;-64
2023/09/29 07:32:42;;;;;;;5.90;3.20;;;;;;;24.28;70.91;99815.58;106702;1270;24454;-64
2023/09/29 07:35:12;;;;;;;7.40;2.70;;;;;;;24.45;70.80;99815.07;106478;1269;99557;-66
2023/09/29 07:37:41;;;;;;;5.60;3.20;;;;;;;24.51;69.84;99814.87;106786;1269;26361;-64
2023/09/29 07:40:11;;;;;;;6.90;3.10;;;;;;;24.48;69.20;99809.98;106748;1263;101738;-65
2023/09/29 07:42:42;;;;;;;4.00;2.90;;;;;;;24.32;68.13;99816.41;106759;1273;24924;-65
2023/09/29 07:45:11;;;;;;;5.40;2.70;;;;;;;24.17;66.89;99812.23;106881;1269;22534;-62
2023/09/29 07:47:41;;;;;;;6.70;3.80;;;;;;;23.99;66.50;99814.12;106656;1269;99103;-64
2023/09/29 07:50:11;;;;;;;6.60;3.40;;;;;;;23.85;66.00;99817.63;107136;1272;22607;-64
2023/09/29 07:52:40;;;;;;;7.30;3.50;;;;;;;23.80;65.40;99817.28;106680;1272;100003;-64
2023/09/29 07:55:12;;;;;;;10.00;3.20;;;;;;;23.82;65.04;99818.83;106929;1269;22544;-65
2023/09/29 07:57:41;;;;;;;9.90;3.50;;;;;;;23.93;64.41;99818.27;106903;1269;25425;-64
2023/09/29 08:00:15;;;;;;;5.90;3.00;;;;;;;24.10;64.38;99815.65;106942;1266;23999;-65
2023/09/29 08:02:44;;;;;;;8.50;3.80;;;;;;;24.31;63.77;99814.03;107101;1255;26693;-65
2023/09/29 08:05:15;;;;;;;6.40;2.40;;;;;;;24.68;63.39;99809.77;107377;1273;99438;-66
2023/09/29 08:07:44;;;;;;;7.70;3.10;;;;;;;25.28;63.08;99808.95;106782;1270;25363;-65
2023/09/29 08:10:13;;;;;;;8.60;3.30;;;;;;;26.20;62.48;99805.02;106960;1272;99721;-64
2023/09/29 08:12:42;;;;;;;8.00;3.10;;;;;;;27.30;62.67;99806.58;107713;1269;25539;-63
2023/09/29 08:15:19;;;;;;;7.20;3.00;;;;;;;28.86;62.91;99800.09;106550;1270;25671;-61
2023/09/29 08:17:50;;;;;;;4.40;2.30;;;;;;;30.45;61.60;99798.60;106284;1269;100966;-62
2023/09/29 08:20:20;;;;;;;3.40;2.10;;;;;;;31.22;60.23;99799.08;107358;1263;22923;-62
2023/09/29 08:22:49;;;;;;;3.30;2.10;;;;;;;31.91;59.20;99798.25;106713;1265;99124;-63
2023/09/29 08:25:22;;;;;;;4.50;2.80;;;;;;;32.76;59.36;99792.98;107061;1270;25151;-63
2023/09/29 08:27:51;;;;;;;4.00;2.20;;;;;;;33.98;58.63;99790.60;106916;1269;99257;-61
2023/09/29 08:30:21;;;;;;;5.20;2.00;;;;;;;35.62;57.99;99787.34;109336;1271;22567;-62
2023/09/29 08:32:51;;;;;;;3.70;1.60;;;;;;;36.71;55.78;99787.41;106761;1269;22769;-61
2023/09/29 08:35:38;;;;;;;4.70;1.80;;;;;;;36.99;54.12;99780.71;108574;1270;99735;-61
2023/09/29 08:38:09;;;;;;;2.10;1.70;;;;;;;37.44;52.84;99782.65;108021;1269;23900;-61
2023/09/29 08:40:39;;;;;;;2.40;1.80;;;;;;;37.97;51.05;99783.73;110082;1272;99824;-63
2023/09/29 08:43:13;;;;;;;11.90;2.50;;;;;;;38.26;49.74;99779.10;106833;1269;25376;-63
2023/09/29 08:45:43;;;;;;;2.90;2.00;;;;;;;38.27;47.92;99780.58;107340;1270;25357;-62
2023/09/29 08:48:13;;;;;;;6.20;2.20;;;;;;;38.22;46.43;99784.83;107074;1254;99322;-63
2023/09/29 08:50:48;;;;;;;7.20;2.90;;;;;;;37.99;45.24;99783.86;107838;1269;22716;-61
2023/09/29 08:53:18;;;;;;;2.40;2.00;;;;;;;37.83;44.37;99778.92;106690;1269;99408;-62
2023/09/29 08:55:50;;;;;;;3.90;1.90;;;;;;;37.84;43.66;99777.31;107613;1260;23130;-61
2023/09/29 08:58:20;;;;;;;3.50;2.10;;;;;;;38.35;42.85;99778.94;108438;1269;99789;-62
2023/09/29 09:00:51;;;;;;;5.00;2.30;;;;;;;39.24;42.21;99782.83;107772;1269;22618;-61
2023/09/29 09:03:22;;;;;;;6.10;2.80;;;;;;;40.06;41.22;99784.00;107259;1269;22524;-62
2023/09/29 09:05:53;;;;;;;29.80;3.50;;;;;;;40.84;40.26;99779.71;107975;1269;99224;-62
2023/09/29 09:08:23;;;;;;;3.30;1.50;;;;;;;41.51;39.16;99774.85;107382;1269;23981;-61
2023/09/29 09:11:02;;;;;;;2.30;1.40;;;;;;;42.10;38.02;99771.52;110004;1270;99129;-60
2023/09/29 09:13:31;;;;;;;4.70;2.00;;;;;;;42.35;36.85;99766.23;106803;1269;23379;-61
2023/09/29 09:16:09;;;;;;;3.10;1.70;;;;;;;42.55;35.62;99759.81;107030;1269;99464;-59
2023/09/29 09:18:40;;;;;;;4.40;1.40;;;;;;;43.07;34.84;99754.50;106819;1269;24259;-70
2023/09/29 09:21:09;;;;;;;5.80;1.90;;;;;;;43.50;33.72;99760.91;106755;1269;23898;-68
2023/09/29 09:23:37;;;;;;;4.00;2.10;;;;;;;43.78;32.82;99759.54;106691;1270;99729;-69
2023/09/29 09:26:16;;;;;;;3.20;1.70;;;;;;;44.30;32.05;99756.70;107827;1269;22541;-60
2023/09/29 09:28:45;;;;;;;2.10;1.90;;;;;;;44.94;30.62;99756.52;110313;1269;99161;-61
2023/09/29 09:31:14;;;;;;;3.10;2.00;;;;;;;45.34;30.28;99751.93;109261;1270;25397;-59
2023/09/29 09:33:49;;;;;;;2.60;1.40;;;;;;;46.34;29.49;99747.92;106638;1269;22546;-59
2023/09/29 09:36:18;;;;;;;3.60;1.90;;;;;;;46.98;28.37;99746.83;110438;1269;22268;-57
2023/09/29 09:38:48;;;;;;;2.90;1.70;;;;;;;46.86;27.20;99747.20;108494;1269;24262;-61
2023/09/29 09:41:17;;;;;;;4.60;1.60;;;;;;;46.02;26.29;99752.34;107298;1270;100255;-59
2023/09/29 09:43:46;;;;;;;3.10;2.20;;;;;;;45.14;25.61;99750.08;106743;1272;22654;-60
2023/09/29 09:46:17;;;;;;;3.10;1.40;;;;;;;45.33;25.66;99754.23;106825;1269;99693;-58
2023/09/29 09:49:08;;;;;;;2.90;1.40;;;;;;;45.67;25.15;99753.56;106769;1262;22527;-58
2023/09/29 09:51:47;;;;;;;6.40;2.00;;;;;;;45.67;24.01;99748.67;107124;1272;25235;-60
2023/09/29 09:54:21;;;;;;;11.50;2.10;;;;;;;45.66;23.93;99741.06;107668;1273;25348;-61
2023/09/29 09:57:00;;;;;;;2.00;1.30;;;;;;;46.15;23.73;99739.23;106575;1270;22635;-59
2023/09/29 09:59:31;;;;;;;3.50;1.80;;;;;;;46.20;23.37;99735.31;106753;1269;99098;-59
2023/09/29 10:02:06;;;;;;;3.50;1.70;;;;;;;45.96;23.18;99733.38;108549;1270;24244;-59
2023/09/29 10:04:38;;;;;;;3.10;1.90;;;;;;;45.80;22.74;99736.66;107620;1270;99252;-60
2023/09/29 10:07:09;;;;;;;3.70;1.50;;;;;;;45.83;22.38;99733.29;106724;1272;22526;-60
2023/09/29 10:09:48;;;;;;;2.60;1.70;;;;;;;45.49;21.85;99733.48;107748;1269;25125;-59
2023/09/29 10:12:26;;;;;;;2.90;1.90;;;;;;;45.53;21.83;99730.71;108517;1271;22567;-61
2023/09/29 10:14:58;;;;;;;4.80;1.50;;;;;;;45.39;21.46;99726.45;107172;1270;24996;-57
2023/09/29 10:17:40;;;;;;;6.30;2.00;;;;;;;45.25;21.33;99725.70;107340;1269;99682;-61
2023/09/29 10:20:22;;;;;;;2.90;1.50;;;;;;;45.21;21.21;99725.52;106792;1269;24260;-60
2023/09/29 10:23:06;;;;;;;2.50;1.40;;;;;;;45.25;21.07;99722.64;106725;1269;99594;-61
2023/09/29 10:25:41;;;;;;;3.00;1.80;;;;;;;46.18;21.39;99719.59;107110;1269;22521;-62
2023/09/29 10:28:12;;;;;;;3.10;1.80;;;;;;;47.25;21.11;99723.42;106677;1271;100243;-62
2023/09/29 10:30:41;;;;;;;3.30;1.60;;;;;;;47.59;20.66;99720.04;107316;1269;24318;-61
2023/09/29 10:33:11;;;;;;;4.50;2.20;;;;;;;47.34;20.34;99718.70;106678;1269;22996;-61
2023/09/29 10:35:47;;;;;;;9.20;2.40;;;;;;;46.82;20.10;99714.16;106597;1269;99713;-57
2023/09/29 10:38:23;;;;;;;4.40;1.70;;;;;;;46.31;20.17;99713.33;106711;1269;22543;-56
2023/09/29 10:40:53;;;;;;;4.30;2.10;;;;;;;45.97;20.11;99710.61;107297;1269;99573;-56
2023/09/29 10:43:26;;;;;;;6.50;2.10;;;;;;;45.23;19.99;99710.79;106748;1269;25409;-56
2023/09/29 10:45:56;;;;;;;5.30;2.40;;;;;;;44.35;20.03;99715.12;106950;1269;100273;-56
2023/09/29 10:48:26;;;;;;;6.80;1.90;;;;;;;43.64;20.11;99715.45;106825;1269;23570;-56
2023/09/29 10:50:55;;;;;;;4.20;1.60;;;;;;;42.45;19.91;99714.73;108158;1269;25469;-57
2023/09/29 10:53:25;;;;;;;3.70;1.70;;;;;;;41.50;20.19;99710.23;106953;1265;99151;-57
2023/09/29 10:55:56;;;;;;;2.70;1.30;;;;;;;41.59;20.60;99710.94;106892;1270;22661;-57
2023/09/29 10:58:27;;;;;;;3.00;1.50;;;;;;;41.73;20.50;99711.11;107972;1270;100397;-58
2023/09/29 11:00:57;;;;;;;3.00;1.80;;;;;;;41.66;20.71;99709.73;106875;1272;22532;-57
2023/09/29 11:03:27;;;;;;;5.90;2.00;;;;;;;41.48;20.74;99706.46;106956;1269;23008;-57
2023/09/29 11:06:03;;;;;;;6.10;1.90;;;;;;;40.96;20.97;99707.34;108039;1269;99102;-56
2023/09/29 11:08:34;;;;;;;4.10;1.70;;;;;;;40.39;20.90;99704.70;108348;1269;25546;-57
2023/09/29 11:11:07;;;;;;;2.60;1.30;;;;;;;39.56;21.02;99703.80;107089;1269;100509;-54
2023/09/29 11:13:39;;;;;;;2.50;1.50;;;;;;;38.96;21.26;99701.25;106959;1269;22590;-56
2023/09/29 11:16:17;;;;;;;3.00;1.80;;;;;;;38.26;21.57;99699.80;108361;1269;100086;-56
2023/09/29 11:18:46;;;;;;;4.90;1.80;;;;;;;37.59;21.56;99698.58;106789;1269;24365;-57
2023/09/29 11:21:19;;;;;;;4.80;2.00;;;;;;;36.89;22.20;99702.23;107530;1274;24393;-57
2023/09/29 11:23:49;;;;;;;4.00;1.70;;;;;;;36.23;22.49;99703.13;110327;1269;99619;-57
2023/09/29 11:26:17;;;;;;;6.60;2.20;;;;;;;35.79;22.79;99700.48;107140;1270;22567;-57
2023/09/29 11:28:48;;;;;;;2.80;1.80;;;;;;;35.28;23.05;99704.03;106616;1269;99690;-57
2023/09/29 11:31:17;;;;;;;10.80;2.30;;;;;;;34.83;23.51;99700.33;106663;1270;22523;-57
2023/09/29 11:33:46;;;;;;;5.10;1.70;;;;;;;34.51;23.69;99698.35;106751;1269;22552;-57
2023/09/29 11:36:17;;;;;;;8.40;2.70;;;;;;;34.06;24.09;99698.98;106497;1270;98921;-60
2023/09/29 11:38:46;;;;;;;4.70;1.90;;;;;;;33.41;24.31;99703.04;107614;1269;22522;-59